createdAt,value
2023-04-25T00:01:24.866Z,4.90
2023-04-25T00:03:26.529Z,3.47
2023-04-25T00:05:28.492Z,3.13
2023-04-25T00:07:30.033Z,5.03
2023-04-25T00:09:31.528Z,3.33
2023-04-25T00:11:33.023Z,3.70
2023-04-25T00:13:34.530Z,3.72
2023-04-25T00:15:37.077Z,3.65
2023-04-25T00:17:39.525Z,3.60
2023-04-25T00:19:41.069Z,3.70
2023-04-25T00:21:42.774Z,3.78
2023-04-25T00:23:44.363Z,3.75
2023-04-25T00:25:47.254Z,3.65
2023-04-25T00:27:48.765Z,3.25
2023-04-25T00:29:50.433Z,3.92
2023-04-25T00:31:51.928Z,3.42
2023-04-25T00:33:54.062Z,4.82
2023-04-25T00:35:56.260Z,3.85
2023-04-25T00:37:57.797Z,4.78
2023-04-25T00:39:59.599Z,3.53
2023-04-25T00:42:03.090Z,5.30
2023-04-25T00:44:05.460Z,3.45
2023-04-25T00:46:07.140Z,4.90
2023-04-25T00:48:08.686Z,3.85
2023-04-25T00:50:11.603Z,3.20
2023-04-25T00:52:13.524Z,4.05
2023-04-25T00:54:15.537Z,4.75
2023-04-25T00:56:17.459Z,3.90
2023-04-25T00:58:20.045Z,3.28
2023-04-25T01:00:21.791Z,2.75
2023-04-25T01:02:23.505Z,3.40
2023-04-25T01:04:25.139Z,3.53
2023-04-25T01:06:26.724Z,3.40
2023-04-25T01:08:28.463Z,4.38
2023-04-25T01:10:30.029Z,3.85
2023-04-25T01:12:31.841Z,4.18
2023-04-25T01:14:33.715Z,4.20
2023-04-25T01:16:35.753Z,2.85
2023-04-25T01:18:39.852Z,4.28
2023-04-25T01:20:42.950Z,4.05
2023-04-25T01:22:44.675Z,3.45
2023-04-25T01:24:46.602Z,3.72
2023-04-25T01:26:51.385Z,4.07
2023-04-25T01:28:53.182Z,5.30
2023-04-25T01:30:55.680Z,3.92
2023-04-25T01:32:57.917Z,3.95
2023-04-25T01:34:59.555Z,3.13
2023-04-25T01:37:02.821Z,3.67
2023-04-25T01:39:04.622Z,3.53
2023-04-25T01:41:06.297Z,4.57
2023-04-25T01:43:12.915Z,3.85
2023-04-25T01:45:14.717Z,3.95
2023-04-25T01:47:16.300Z,4.15
2023-04-25T01:49:17.988Z,4.22
2023-04-25T01:51:20.019Z,4.05
2023-04-25T01:53:21.605Z,4.15
2023-04-25T01:55:23.136Z,4.03
2023-04-25T01:57:24.659Z,5.68
2023-04-25T01:59:26.556Z,4.63
2023-04-25T02:01:28.192Z,3.13
2023-04-25T02:03:32.360Z,3.60
2023-04-25T02:05:38.430Z,4.28
2023-04-25T02:07:39.900Z,4.43
2023-04-25T02:09:41.426Z,3.50
2023-04-25T02:11:43.159Z,3.83
2023-04-25T02:13:44.687Z,4.05
2023-04-25T02:15:46.240Z,4.05
2023-04-25T02:17:48.135Z,4.80
2023-04-25T02:19:49.693Z,4.25
2023-04-25T02:21:51.164Z,4.60
2023-04-25T02:23:53.357Z,3.30
2023-04-25T02:25:56.316Z,3.95
2023-04-25T02:27:57.822Z,4.20
2023-04-25T02:29:59.298Z,3.53
2023-04-25T02:32:00.767Z,3.65
2023-04-25T02:34:02.288Z,3.55
2023-04-25T02:36:04.365Z,3.75
2023-04-25T02:38:05.828Z,3.55
2023-04-25T02:40:08.025Z,3.55
2023-04-25T02:42:09.545Z,4.32
2023-04-25T02:44:11.020Z,3.67
2023-04-25T02:46:12.587Z,3.15
2023-04-25T02:48:14.094Z,3.38
2023-04-25T02:50:15.736Z,4.88
2023-04-25T02:52:17.210Z,3.15
2023-04-25T02:54:18.703Z,3.72
2023-04-25T02:56:20.214Z,3.35
2023-04-25T02:58:21.728Z,3.15
2023-04-25T03:00:23.618Z,3.83
2023-04-25T03:02:25.157Z,3.50
2023-04-25T03:04:26.847Z,3.03
2023-04-25T03:06:28.403Z,3.72
2023-04-25T03:08:33.653Z,4.30
2023-04-25T03:10:35.233Z,3.72
2023-04-25T03:12:36.998Z,4.03
2023-04-25T03:14:38.543Z,4.88
2023-04-25T03:16:40.359Z,3.30
2023-04-25T03:18:41.944Z,3.22
2023-04-25T03:20:43.881Z,3.53
2023-04-25T03:22:46.039Z,3.65
2023-04-25T03:24:48.123Z,3.33
2023-04-25T03:26:49.675Z,3.22
2023-04-25T03:28:51.297Z,3.70
2023-04-25T03:30:52.779Z,3.35
2023-04-25T03:32:54.346Z,3.13
2023-04-25T03:34:56.099Z,4.85
2023-04-25T03:36:57.603Z,3.45
2023-04-25T03:38:59.240Z,3.45
2023-04-25T03:41:01.915Z,3.63
2023-04-25T03:43:03.411Z,3.60
2023-04-25T03:45:06.391Z,3.45
2023-04-25T03:47:07.866Z,3.42
2023-04-25T03:49:09.673Z,3.08
2023-04-25T03:51:11.147Z,3.10
2023-04-25T03:53:12.629Z,3.33
2023-04-25T03:55:14.082Z,3.25
2023-04-25T03:57:15.720Z,4.13
2023-04-25T03:59:17.253Z,3.55
2023-04-25T04:01:18.716Z,3.40
2023-04-25T04:03:20.389Z,3.47
2023-04-25T04:05:22.343Z,3.92
2023-04-25T04:07:23.873Z,3.22
2023-04-25T04:09:26.127Z,2.65
2023-04-25T04:11:27.709Z,3.95
2023-04-25T04:13:30.798Z,3.60
2023-04-25T04:15:34.036Z,3.10
2023-04-25T04:17:35.808Z,3.40
2023-04-25T04:19:37.398Z,3.15
2023-04-25T04:21:38.909Z,3.83
2023-04-25T04:23:40.707Z,4.80
2023-04-25T04:25:42.799Z,3.65
2023-04-25T04:27:45.721Z,2.80
2023-04-25T04:29:47.331Z,3.00
2023-04-25T04:31:50.671Z,2.90
2023-04-25T04:33:53.226Z,3.83
2023-04-25T04:35:56.708Z,3.50
2023-04-25T04:37:58.294Z,3.13
2023-04-25T04:39:59.783Z,3.22
2023-04-25T04:42:02.823Z,3.20
2023-04-25T04:44:05.773Z,2.85
2023-04-25T04:46:08.285Z,2.55
2023-04-25T04:48:12.963Z,2.63
2023-04-25T04:50:15.986Z,2.83
2023-04-25T04:52:17.562Z,3.30
2023-04-25T04:54:19.116Z,2.58
2023-04-25T04:56:24.580Z,3.60
2023-04-25T04:58:26.249Z,2.53
2023-04-25T05:00:29.715Z,2.65
2023-04-25T05:02:31.389Z,3.50
2023-04-25T05:04:33.123Z,2.55
2023-04-25T05:06:34.712Z,3.55
2023-04-25T05:08:36.570Z,2.80
2023-04-25T05:10:38.030Z,2.75
2023-04-25T05:12:39.504Z,2.88
2023-04-25T05:14:40.972Z,2.53
2023-04-25T05:16:43.676Z,2.85
2023-04-25T05:18:45.229Z,2.80
2023-04-25T05:20:46.911Z,3.45
2023-04-25T05:22:48.377Z,2.90
2023-04-25T05:24:49.957Z,2.30
2023-04-25T05:26:51.713Z,2.53
2023-04-25T05:28:53.295Z,3.08
2023-04-25T05:30:54.788Z,3.40
2023-04-25T05:32:56.860Z,3.20
2023-04-25T05:34:58.469Z,2.92
2023-04-25T05:36:59.950Z,3.45
2023-04-25T05:39:01.417Z,2.10
2023-04-25T05:41:03.030Z,3.05
2023-04-25T05:43:04.532Z,3.00
2023-04-25T05:45:06.776Z,2.40
2023-04-25T05:47:08.258Z,2.25
2023-04-25T05:49:09.714Z,2.50
2023-04-25T05:51:11.226Z,2.50
2023-04-25T05:53:12.754Z,2.55
2023-04-25T05:55:14.608Z,2.03
2023-04-25T05:57:24.241Z,2.33
2023-04-25T05:59:26.213Z,2.20
2023-04-25T06:01:27.731Z,2.25
2023-04-25T06:03:29.336Z,2.78
2023-04-25T06:05:31.521Z,2.75
2023-04-25T06:07:33.364Z,2.15
2023-04-25T06:09:35.258Z,2.00
2023-04-25T06:11:36.704Z,2.00
2023-04-25T06:13:38.320Z,2.17
2023-04-25T06:15:39.936Z,2.00
2023-04-25T06:17:41.484Z,2.13
2023-04-25T06:19:42.976Z,2.05
2023-04-25T06:21:45.504Z,2.30
2023-04-25T06:23:46.990Z,2.55
2023-04-25T06:25:48.435Z,2.05
2023-04-25T06:27:49.980Z,2.53
2023-04-25T06:29:51.457Z,2.70
2023-04-25T06:31:53.418Z,1.63
2023-04-25T06:33:55.788Z,2.13
2023-04-25T06:35:57.278Z,3.22
2023-04-25T06:37:58.839Z,2.33
2023-04-25T06:40:00.340Z,2.00
2023-04-25T06:42:01.914Z,2.42
2023-04-25T06:44:03.427Z,1.90
2023-04-25T06:46:04.990Z,2.08
2023-04-25T06:48:06.710Z,1.83
2023-04-25T06:50:08.620Z,1.48
2023-04-25T06:52:11.649Z,1.77
2023-04-25T06:54:13.240Z,1.63
2023-04-25T06:56:14.681Z,1.60
2023-04-25T06:58:16.276Z,1.83
2023-04-25T07:00:18.507Z,2.00
2023-04-25T07:02:20.182Z,1.60
2023-04-25T07:04:22.031Z,1.52
2023-04-25T07:06:23.654Z,1.88
2023-04-25T07:08:25.408Z,3.38
2023-04-25T07:10:26.985Z,1.60
2023-04-25T07:12:28.494Z,1.80
2023-04-25T07:14:30.000Z,1.52
2023-04-25T07:16:31.554Z,1.90
2023-04-25T07:18:33.120Z,1.75
2023-04-25T07:20:34.594Z,1.30
2023-04-25T07:22:36.093Z,1.92
2023-04-25T07:24:37.608Z,1.77
2023-04-25T07:26:39.131Z,1.90
2023-04-25T07:28:40.665Z,1.30
2023-04-25T07:30:42.152Z,1.90
2023-04-25T07:32:43.741Z,2.65
2023-04-25T07:34:45.638Z,1.63
2023-04-25T07:36:47.190Z,1.23
2023-04-25T07:38:48.749Z,1.48
2023-04-25T07:40:50.842Z,2.05
2023-04-25T07:42:52.289Z,1.58
2023-04-25T07:44:53.807Z,1.67
2023-04-25T07:46:55.303Z,0.93
2023-04-25T07:48:56.775Z,1.55
2023-04-25T07:50:58.298Z,1.77
2023-04-25T07:52:59.772Z,1.85
2023-04-25T07:55:01.436Z,1.80
2023-04-25T07:57:03.454Z,1.80
2023-04-25T07:59:04.921Z,1.45
2023-04-25T08:01:06.471Z,1.70
2023-04-25T08:03:08.773Z,1.30
2023-04-25T08:05:13.084Z,1.33
2023-04-25T08:07:14.822Z,1.30
2023-04-25T08:09:16.696Z,1.35
2023-04-25T08:11:18.205Z,1.40
2023-04-25T08:13:19.667Z,1.80
2023-04-25T08:15:21.354Z,1.75
2023-04-25T08:17:22.833Z,1.17
2023-04-25T08:19:24.475Z,3.17
2023-04-25T08:21:27.870Z,1.40
2023-04-25T08:23:29.577Z,1.85
2023-04-25T08:25:31.101Z,1.50
2023-04-25T08:27:32.560Z,1.08
2023-04-25T08:29:34.662Z,0.82
2023-04-25T08:31:36.280Z,1.52
2023-04-25T08:33:37.780Z,0.93
2023-04-25T08:35:39.343Z,1.52
2023-04-25T08:37:40.802Z,0.75
2023-04-25T08:39:43.206Z,0.75
2023-04-25T08:41:45.605Z,1.23
2023-04-25T08:43:49.808Z,0.82
2023-04-25T08:45:54.631Z,1.00
2023-04-25T08:47:58.176Z,0.85
2023-04-25T08:50:00.767Z,0.77
2023-04-25T08:52:07.578Z,0.70
2023-04-25T08:54:27.966Z,0.95
2023-04-25T08:56:35.937Z,0.77
2023-04-25T08:58:38.082Z,1.10
2023-04-25T09:00:40.530Z,1.13
2023-04-25T09:02:44.662Z,1.23
2023-04-25T09:04:46.663Z,1.00
2023-04-25T09:06:48.862Z,0.90
2023-04-25T09:08:51.357Z,0.77
2023-04-25T09:10:52.841Z,1.55
2023-04-25T09:13:11.583Z,1.08
2023-04-25T09:17:22.724Z,0.88
2023-04-25T09:19:39.549Z,0.93
2023-04-25T09:21:42.181Z,1.63
2023-04-25T09:23:48.789Z,0.98
2023-04-25T09:25:54.657Z,1.13
2023-04-25T09:27:57.054Z,1.60
2023-04-25T09:30:02.683Z,1.08
2023-04-25T09:32:21.796Z,0.80
2023-04-25T09:34:27.061Z,0.68
2023-04-25T09:36:29.257Z,0.82
2023-04-25T09:38:32.146Z,1.10
2023-04-25T09:40:33.621Z,1.40
2023-04-25T09:42:35.750Z,0.80
2023-04-25T09:44:37.333Z,0.90
2023-04-25T09:46:39.190Z,1.27
2023-04-25T09:48:41.367Z,0.75
2023-04-25T09:50:42.838Z,0.63
2023-04-25T09:52:44.572Z,0.70
2023-04-25T09:54:47.837Z,0.88
2023-04-25T09:56:52.135Z,0.93
2023-04-25T09:58:54.897Z,0.95
2023-04-25T10:01:01.371Z,1.20
2023-04-25T10:03:06.597Z,1.10
2023-04-25T10:05:09.444Z,1.10
2023-04-25T10:07:12.095Z,1.70
2023-04-25T10:09:15.029Z,1.08
2023-04-25T10:11:17.498Z,1.10
2023-04-25T10:13:19.723Z,1.00
2023-04-25T10:15:22.852Z,1.00
2023-04-25T10:17:28.177Z,1.10
2023-04-25T10:19:30.677Z,1.30
2023-04-25T10:21:34.834Z,0.65
2023-04-25T10:23:38.205Z,0.82
2023-04-25T10:25:41.292Z,0.70
2023-04-25T10:27:42.813Z,1.05
2023-04-25T10:29:44.955Z,1.33
2023-04-25T10:31:48.437Z,1.10
2023-04-25T10:33:50.774Z,1.15
2023-04-25T10:35:52.481Z,0.70
2023-04-25T10:38:15.437Z,0.85
2023-04-25T10:40:23.051Z,0.90
2023-04-25T10:42:24.535Z,0.93
2023-04-25T10:44:32.832Z,0.90
2023-04-25T10:46:36.139Z,0.82
2023-04-25T10:48:37.651Z,0.80
2023-04-25T10:50:40.858Z,1.25
2023-04-25T10:52:42.356Z,1.10
2023-04-25T10:54:55.752Z,0.90
2023-04-25T10:56:59.812Z,0.93
2023-04-25T10:59:07.134Z,1.08
2023-04-25T11:01:08.743Z,0.90
2023-04-25T11:03:10.406Z,1.13
2023-04-25T11:05:21.422Z,0.93
2023-04-25T11:07:38.411Z,0.80
2023-04-25T11:09:41.582Z,0.98
2023-04-25T11:11:43.129Z,1.08
2023-04-25T11:13:44.840Z,0.60
2023-04-25T11:15:46.318Z,1.08
2023-04-25T11:17:48.155Z,0.85
2023-04-25T11:19:50.630Z,1.20
2023-04-25T11:21:55.838Z,1.20
2023-04-25T11:23:57.582Z,0.80
2023-04-25T11:26:01.518Z,1.15
2023-04-25T11:28:03.913Z,0.90
2023-04-25T11:30:14.151Z,0.93
2023-04-25T11:32:20.579Z,0.93
2023-04-25T11:34:23.043Z,1.23
2023-04-25T11:36:25.459Z,1.08
2023-04-25T11:38:28.024Z,1.10
2023-04-25T11:40:32.006Z,1.10
2023-04-25T11:42:34.541Z,1.15
2023-04-25T11:44:36.215Z,1.02
2023-04-25T11:46:37.884Z,1.27
2023-04-25T11:48:40.173Z,1.10
2023-04-25T11:50:41.730Z,1.20
2023-04-25T11:52:45.390Z,1.15
2023-04-25T11:54:47.645Z,1.25
2023-04-25T11:56:49.146Z,1.30
2023-04-25T11:59:07.740Z,1.73
2023-04-25T12:01:09.428Z,1.35
2023-04-25T12:03:11.211Z,0.95
2023-04-25T12:05:30.241Z,1.02
2023-04-25T12:07:33.557Z,1.20
2023-04-25T12:09:35.061Z,0.70
2023-04-25T12:11:43.842Z,0.80
2023-04-25T12:15:47.064Z,1.10
2023-04-25T12:17:50.584Z,0.80
2023-04-25T12:19:52.067Z,0.95
2023-04-25T12:21:57.920Z,0.75
2023-04-25T12:24:12.163Z,0.93
2023-04-25T12:26:13.810Z,0.70
2023-04-25T12:28:25.830Z,1.30
2023-04-25T12:30:27.310Z,1.20
2023-04-25T12:32:28.849Z,0.90
2023-04-25T12:34:32.570Z,1.55
2023-04-25T12:36:34.101Z,1.00
2023-04-25T12:38:40.236Z,0.95
2023-04-25T12:40:41.839Z,1.00
2023-04-25T12:42:43.322Z,1.48
2023-04-25T12:44:44.933Z,1.10
2023-04-25T12:46:46.708Z,1.30
2023-04-25T12:48:48.458Z,0.95
2023-04-25T12:50:52.617Z,1.85
2023-04-25T12:52:54.241Z,0.77
2023-04-25T12:54:55.826Z,0.80
2023-04-25T12:56:57.664Z,1.20
2023-04-25T12:58:59.481Z,1.10
2023-04-25T13:01:01.073Z,1.55
2023-04-25T13:03:03.417Z,1.23
2023-04-25T13:05:05.450Z,0.90
2023-04-25T13:07:07.223Z,0.70
2023-04-25T13:09:09.434Z,0.98
2023-04-25T13:11:11.160Z,1.30
2023-04-25T13:13:12.707Z,1.08
2023-04-25T13:15:16.439Z,0.90
2023-04-25T13:17:17.941Z,1.20
2023-04-25T13:19:19.458Z,0.70
2023-04-25T13:21:20.959Z,1.40
2023-04-25T13:23:23.343Z,1.33
2023-04-25T13:25:24.863Z,1.75
2023-04-25T13:27:26.330Z,0.93
2023-04-25T13:29:27.798Z,0.70
2023-04-25T13:31:29.301Z,1.30
2023-04-25T13:33:30.815Z,1.17
2023-04-25T13:35:32.317Z,1.30
2023-04-25T13:37:34.015Z,1.33
2023-04-25T13:39:36.155Z,0.68
2023-04-25T13:41:37.849Z,0.73
2023-04-25T13:43:39.421Z,0.75
2023-04-25T13:45:41.778Z,0.90
2023-04-25T13:47:43.532Z,1.35
2023-04-25T13:49:45.051Z,1.05
2023-04-25T13:51:46.664Z,0.52
2023-04-25T13:53:48.147Z,0.73
2023-04-25T13:55:49.895Z,0.60
2023-04-25T13:57:51.428Z,0.40
2023-04-25T13:59:53.860Z,0.50
2023-04-25T14:01:55.572Z,0.43
2023-04-25T14:03:57.310Z,0.50
2023-04-25T14:05:58.849Z,0.50
2023-04-25T14:08:02.199Z,0.75
2023-04-25T14:10:05.795Z,0.70
2023-04-25T14:12:07.306Z,3.15
2023-04-25T14:14:08.791Z,0.93
2023-04-25T14:16:10.363Z,1.10
2023-04-25T14:18:12.101Z,1.05
2023-04-25T14:20:14.222Z,1.00
2023-04-25T14:22:19.075Z,1.75
2023-04-25T14:24:20.596Z,0.70
2023-04-25T14:26:22.121Z,1.08
2023-04-25T14:28:23.610Z,0.90
2023-04-25T14:30:25.375Z,1.10
2023-04-25T14:32:26.884Z,1.30
2023-04-25T14:34:28.752Z,1.30
2023-04-25T14:36:31.774Z,0.82
2023-04-25T14:38:33.269Z,1.08
2023-04-25T14:40:34.902Z,0.75
2023-04-25T14:42:36.537Z,0.70
2023-04-25T14:44:39.057Z,1.33
2023-04-25T14:46:40.588Z,0.95
2023-04-25T14:48:42.280Z,1.05
2023-04-25T14:50:43.755Z,1.67
2023-04-25T14:52:46.082Z,0.98
2023-04-25T14:54:48.790Z,0.80
2023-04-25T14:56:50.908Z,0.85
2023-04-25T14:58:52.446Z,0.68
2023-04-25T15:00:54.021Z,0.95
2023-04-25T15:02:57.063Z,0.90
2023-04-25T15:04:58.917Z,1.08
2023-04-25T15:07:00.452Z,0.80
2023-04-25T15:09:02.094Z,0.90
2023-04-25T15:11:04.005Z,1.15
2023-04-25T15:13:05.775Z,0.80
2023-04-25T15:15:14.290Z,0.75
2023-04-25T15:17:19.311Z,0.80
2023-04-25T15:19:21.598Z,0.98
2023-04-25T15:21:23.121Z,1.13
2023-04-25T15:23:25.577Z,1.30
2023-04-25T15:25:29.523Z,1.30
2023-04-25T15:27:31.664Z,1.65
2023-04-25T15:29:33.154Z,1.23
2023-04-25T15:31:34.667Z,0.93
2023-04-25T15:33:36.322Z,1.75
2023-04-25T15:35:37.842Z,1.20
2023-04-25T15:37:39.784Z,1.08
2023-04-25T15:39:41.303Z,0.93
2023-04-25T15:41:42.793Z,0.90
2023-04-25T15:43:44.449Z,0.77
2023-04-25T15:45:46.107Z,1.50
2023-04-25T15:47:47.943Z,0.95
2023-04-25T15:49:49.525Z,1.30
2023-04-25T15:51:51.392Z,1.25
2023-04-25T15:53:53.228Z,0.80
2023-04-25T15:55:55.029Z,1.20
2023-04-25T15:57:56.519Z,0.95
2023-04-25T15:59:58.079Z,1.27
2023-04-25T16:01:59.648Z,1.15
2023-04-25T16:04:01.421Z,1.38
2023-04-25T16:06:03.211Z,0.93
2023-04-25T16:08:05.380Z,1.38
2023-04-25T16:10:07.731Z,1.10
2023-04-25T16:12:10.890Z,0.90
2023-04-25T16:14:12.418Z,0.93
2023-04-25T16:16:14.658Z,0.70
2023-04-25T16:18:16.475Z,0.85
2023-04-25T16:20:18.045Z,0.80
2023-04-25T16:22:19.492Z,1.45
2023-04-25T16:24:21.097Z,1.30
2023-04-25T16:26:22.639Z,1.55
2023-04-25T16:28:24.178Z,0.80
2023-04-25T16:30:26.323Z,0.95
2023-04-25T16:32:28.440Z,1.30
2023-04-25T16:34:30.396Z,0.80
2023-04-25T16:36:34.399Z,0.80
2023-04-25T16:38:36.324Z,0.77
2023-04-25T16:40:37.868Z,1.05
2023-04-25T16:42:39.413Z,1.20
2023-04-25T16:44:41.069Z,3.67
2023-04-25T16:46:42.882Z,3.20
2023-04-25T16:48:44.459Z,2.80
2023-04-25T16:50:46.265Z,2.10
2023-04-25T16:52:47.845Z,1.73
2023-04-25T16:54:49.427Z,1.02
2023-04-25T16:56:51.708Z,3.28
2023-04-25T16:58:54.114Z,3.22
2023-04-25T17:00:56.070Z,1.05
2023-04-25T17:02:57.616Z,1.75
2023-04-25T17:04:59.226Z,1.52
2023-04-25T17:07:00.707Z,0.90
2023-04-25T17:09:02.246Z,1.30
2023-04-25T17:11:03.843Z,0.93
2023-04-25T17:13:05.829Z,0.82
2023-04-25T17:15:07.877Z,1.00
2023-04-25T17:17:09.450Z,1.10
2023-04-25T17:19:11.107Z,0.93
2023-04-25T17:21:12.609Z,1.42
2023-04-25T17:23:14.167Z,1.67
2023-04-25T17:25:15.722Z,1.30
2023-04-25T17:29:35.776Z,1.58
2023-04-25T17:31:37.939Z,0.85
2023-04-25T17:33:39.566Z,1.13
2023-04-25T17:35:41.099Z,0.90
2023-04-25T17:37:43.195Z,1.25
2023-04-25T17:39:45.130Z,1.27
2023-04-25T17:41:46.820Z,0.90
2023-04-25T17:43:49.172Z,1.02
2023-04-25T17:45:50.939Z,0.80
2023-04-25T17:47:52.705Z,1.08
2023-04-25T17:49:54.839Z,1.00
2023-04-25T17:51:57.420Z,1.10
2023-04-25T17:53:58.920Z,0.98
2023-04-25T17:56:00.497Z,1.95
2023-04-25T17:58:01.923Z,1.20
2023-04-25T18:00:05.883Z,1.00
2023-04-25T18:02:08.173Z,1.20
2023-04-25T18:04:09.660Z,1.75
2023-04-25T18:06:11.993Z,1.15
2023-04-25T18:08:13.769Z,1.23
2023-04-25T18:10:15.319Z,1.10
2023-04-25T18:12:18.021Z,2.47
2023-04-25T18:14:21.454Z,0.70
2023-04-25T18:16:23.094Z,1.13
2023-04-25T18:18:27.897Z,1.08
2023-04-25T18:20:29.381Z,0.95
2023-04-25T18:22:30.828Z,1.02
2023-04-25T18:24:32.348Z,1.58
2023-04-25T18:26:33.821Z,1.10
2023-04-25T18:28:35.305Z,0.90
2023-04-25T18:30:38.003Z,1.20
2023-04-25T18:32:39.973Z,1.27
2023-04-25T18:34:43.721Z,1.80
2023-04-25T18:36:45.274Z,1.23
2023-04-25T18:38:50.436Z,1.00
2023-04-25T18:41:00.142Z,1.17
2023-04-25T18:43:04.083Z,1.05
2023-04-25T18:45:06.411Z,0.90
2023-04-25T18:47:12.972Z,0.98
2023-04-25T18:49:14.626Z,1.25
2023-04-25T18:51:16.775Z,1.00
2023-04-25T18:53:18.219Z,1.25
2023-04-25T18:55:19.896Z,1.20
2023-04-25T18:57:21.689Z,1.20
2023-04-25T18:59:23.381Z,1.10
2023-04-25T19:01:25.815Z,1.10
2023-04-25T19:03:28.811Z,1.50
2023-04-25T19:05:31.623Z,0.90
2023-04-25T19:07:33.194Z,1.55
2023-04-25T19:09:34.800Z,1.00
2023-04-25T19:11:36.314Z,1.20
2023-04-25T19:13:37.774Z,1.10
2023-04-25T19:15:39.497Z,1.20
2023-04-25T19:17:42.279Z,1.02
2023-04-25T19:19:43.827Z,0.75
2023-04-25T19:21:45.331Z,1.08
2023-04-25T19:23:46.952Z,2.05
2023-04-25T19:25:48.432Z,1.10
2023-04-25T19:27:50.007Z,1.13
2023-04-25T19:29:57.543Z,1.05
2023-04-25T19:31:59.697Z,1.10
2023-04-25T19:34:01.205Z,1.02
2023-04-25T19:36:03.145Z,1.42
2023-04-25T19:38:04.663Z,1.75
2023-04-25T19:40:07.488Z,1.98
2023-04-25T19:42:09.009Z,1.27
2023-04-25T19:44:10.480Z,1.13
2023-04-25T19:46:11.956Z,1.48
2023-04-25T19:48:14.153Z,1.20
2023-04-25T19:50:15.991Z,1.20
2023-04-25T19:52:17.537Z,1.17
2023-04-25T19:54:18.986Z,1.10
2023-04-25T19:56:21.365Z,1.60
2023-04-25T19:58:22.935Z,1.42
2023-04-25T20:00:24.562Z,1.70
2023-04-25T20:02:26.573Z,1.63
2023-04-25T20:04:28.300Z,1.30
2023-04-25T20:06:29.871Z,1.67
2023-04-25T20:08:31.356Z,1.70
2023-04-25T20:10:32.926Z,1.52
2023-04-25T20:12:37.697Z,1.58
2023-04-25T20:14:39.224Z,1.40
2023-04-25T20:16:41.395Z,1.70
2023-04-25T20:18:43.107Z,2.30
2023-04-25T20:20:44.608Z,1.83
2023-04-25T20:22:46.377Z,1.85
2023-04-25T20:24:47.820Z,1.80
2023-04-25T20:26:49.707Z,2.05
2023-04-25T20:28:51.891Z,1.73
2023-04-25T20:30:53.750Z,2.08
2023-04-25T20:32:55.267Z,1.83
2023-04-25T20:34:56.718Z,1.60
2023-04-25T20:36:58.282Z,1.70
2023-04-25T20:38:59.732Z,1.60
2023-04-25T20:41:01.328Z,1.60
2023-04-25T20:43:05.162Z,1.77
2023-04-25T20:45:07.967Z,1.63
2023-04-25T20:47:09.760Z,1.90
2023-04-25T20:49:11.247Z,2.00
2023-04-25T20:51:12.854Z,1.60
2023-04-25T20:53:15.056Z,1.55
2023-04-25T20:55:16.806Z,1.70
2023-04-25T20:57:18.346Z,1.85
2023-04-25T20:59:20.020Z,1.70
2023-04-25T21:01:21.626Z,1.90
2023-04-25T21:03:23.333Z,1.90
2023-04-25T21:05:24.984Z,2.42
2023-04-25T21:07:26.708Z,1.90
2023-04-25T21:09:28.394Z,2.13
2023-04-25T21:11:29.978Z,1.98
2023-04-25T21:13:31.899Z,3.00
2023-04-25T21:15:33.722Z,2.95
2023-04-25T21:17:35.459Z,2.45
2023-04-25T21:19:37.013Z,2.10
2023-04-25T21:21:38.491Z,3.00
2023-04-25T21:23:39.959Z,2.13
2023-04-25T21:25:42.982Z,2.13
2023-04-25T21:27:45.306Z,2.22
2023-04-25T21:29:47.249Z,2.55
2023-04-25T21:31:48.943Z,1.83
2023-04-25T21:33:50.547Z,1.77
2023-04-25T21:35:52.072Z,2.13
2023-04-25T21:37:53.576Z,1.75
2023-04-25T21:39:55.027Z,1.92
2023-04-25T21:41:56.477Z,1.85
2023-04-25T21:43:57.941Z,1.95
2023-04-25T21:46:21.330Z,1.83
2023-04-25T21:48:20.976Z,2.50
2023-04-25T21:50:22.679Z,2.30
2023-04-25T21:52:24.298Z,2.42
2023-04-25T21:54:26.001Z,2.45
2023-04-25T21:56:27.442Z,2.13
2023-04-25T21:58:28.921Z,2.30
2023-04-25T22:00:31.949Z,2.00
2023-04-25T22:02:34.341Z,2.10
2023-04-25T22:04:36.378Z,2.50
2023-04-25T22:06:38.076Z,2.60
2023-04-25T22:08:39.598Z,2.15
2023-04-25T22:10:42.222Z,1.88
2023-04-25T22:12:44.696Z,1.88
2023-04-25T22:14:46.682Z,2.47
2023-04-25T22:16:49.908Z,2.17
2023-04-25T22:18:52.118Z,2.40
2023-04-25T22:20:54.561Z,2.22
2023-04-25T22:22:56.390Z,2.13
2023-04-25T22:24:58.002Z,2.10
2023-04-25T22:26:59.505Z,2.10
2023-04-25T22:29:01.512Z,2.20
2023-04-25T22:31:03.648Z,1.80
2023-04-25T22:33:05.304Z,2.83
2023-04-25T22:35:07.993Z,1.98
2023-04-25T22:37:09.487Z,2.10
2023-04-25T22:39:11.703Z,2.47
2023-04-25T22:41:13.458Z,2.00
2023-04-25T22:43:15.832Z,2.63
2023-04-25T22:45:17.386Z,2.05
2023-04-25T22:47:18.844Z,2.10
2023-04-25T22:49:20.296Z,1.65
2023-04-25T22:51:22.119Z,2.08
2023-04-25T22:53:23.580Z,2.50
2023-04-25T22:55:26.490Z,2.80
2023-04-25T22:57:27.988Z,1.92
2023-04-25T22:59:29.571Z,2.25
2023-04-25T23:01:31.542Z,2.67
2023-04-25T23:03:36.383Z,2.13
2023-04-25T23:05:38.354Z,2.22
2023-04-25T23:07:44.470Z,2.25
2023-04-25T23:09:46.085Z,2.03
2023-04-25T23:11:48.136Z,2.40
2023-04-25T23:13:49.935Z,2.75
2023-04-25T23:15:51.811Z,2.78
2023-04-25T23:17:53.457Z,2.45
2023-04-25T23:19:55.021Z,2.13
2023-04-25T23:21:56.453Z,1.92
2023-04-25T23:23:57.916Z,2.65
2023-04-25T23:25:59.409Z,2.60
2023-04-25T23:28:00.917Z,2.13
2023-04-25T23:30:02.492Z,2.72
2023-04-25T23:32:04.468Z,1.90
2023-04-25T23:34:06.217Z,2.13
2023-04-25T23:36:07.937Z,2.05
2023-04-25T23:38:09.414Z,2.38
2023-04-25T23:40:14.185Z,2.38
2023-04-25T23:42:16.131Z,2.13
2023-04-25T23:44:17.620Z,2.22
2023-04-25T23:46:19.283Z,2.70
2023-04-25T23:48:20.892Z,3.10
2023-04-25T23:50:22.376Z,2.60
2023-04-25T23:52:23.873Z,2.45
2023-04-25T23:54:25.314Z,1.90
2023-04-25T23:56:26.902Z,2.03
2023-04-25T23:58:28.367Z,2.22
